createdAt,value
2022-09-28T00:01:15.713Z,13.30
2022-09-28T00:04:18.011Z,13.30
2022-09-28T00:07:19.821Z,13.30
2022-09-28T00:10:24.380Z,13.30
2022-09-28T00:13:26.352Z,13.30
2022-09-28T00:16:31.937Z,13.30
2022-09-28T00:19:35.047Z,13.50
2022-09-28T00:22:37.166Z,13.50
2022-09-28T00:25:39.000Z,13.60
2022-09-28T00:28:40.874Z,13.50
2022-09-28T00:31:42.937Z,13.50
2022-09-28T00:34:48.998Z,13.50
2022-09-28T00:37:50.980Z,13.50
2022-09-28T00:40:52.929Z,13.50
2022-09-28T00:44:36.021Z,13.50
2022-09-28T00:47:58.454Z,13.50
2022-09-28T00:51:05.984Z,13.50
2022-09-28T00:54:09.252Z,13.60
2022-09-28T00:57:11.063Z,13.40
2022-09-28T01:00:13.801Z,13.50
2022-09-28T01:03:16.718Z,13.40
2022-09-28T01:06:24.607Z,13.40
2022-09-28T01:09:28.889Z,13.40
2022-09-28T01:12:30.744Z,13.40
2022-09-28T01:15:36.785Z,13.50
2022-09-28T01:18:54.386Z,13.40
2022-09-28T01:22:27.387Z,13.40
2022-09-28T01:25:51.303Z,13.50
2022-09-28T01:29:01.609Z,13.50
2022-09-28T01:32:27.856Z,13.50
2022-09-28T01:35:39.965Z,13.50
2022-09-28T01:38:55.915Z,13.50
2022-09-28T01:42:03.181Z,13.40
2022-09-28T01:45:16.445Z,13.40
2022-09-28T01:48:31.392Z,13.40
2022-09-28T01:51:54.959Z,13.30
2022-09-28T01:55:04.124Z,13.40
2022-09-28T01:58:27.415Z,13.30
2022-09-28T02:01:43.155Z,13.30
2022-09-28T02:05:09.246Z,13.40
2022-09-28T02:08:29.305Z,13.40
2022-09-28T02:11:33.386Z,13.30
2022-09-28T02:14:38.043Z,13.30
2022-09-28T02:17:40.058Z,13.20
2022-09-28T02:20:47.640Z,13.20
2022-09-28T02:24:06.988Z,13.20
2022-09-28T02:27:16.518Z,13.10
2022-09-28T02:30:18.988Z,13.20
2022-09-28T02:33:33.732Z,13.10
2022-09-28T02:36:35.881Z,13.00
2022-09-28T02:39:37.697Z,13.10
2022-09-28T02:42:54.411Z,13.00
2022-09-28T02:46:08.207Z,12.90
2022-09-28T02:49:22.455Z,12.80
2022-09-28T02:52:47.648Z,12.90
2022-09-28T02:56:07.648Z,13.00
2022-09-28T02:59:50.628Z,13.00
2022-09-28T03:03:22.187Z,13.00
2022-09-28T03:06:50.356Z,13.00
2022-09-28T03:10:28.083Z,13.10
2022-09-28T03:13:31.053Z,13.00
2022-09-28T03:16:33.068Z,12.90
2022-09-28T03:19:36.785Z,12.90
2022-09-28T03:22:38.914Z,12.90
2022-09-28T03:25:40.830Z,13.00
2022-09-28T03:28:43.231Z,12.90
2022-09-28T03:31:45.145Z,12.90
2022-09-28T03:34:47.082Z,12.80
2022-09-28T03:37:48.920Z,12.80
2022-09-28T03:40:58.588Z,12.80
2022-09-28T03:44:00.578Z,12.80
2022-09-28T03:47:02.451Z,12.80
2022-09-28T03:50:04.611Z,12.80
2022-09-28T03:53:06.462Z,12.80
2022-09-28T03:56:14.634Z,12.90
2022-09-28T03:59:16.651Z,12.70
2022-09-28T04:02:18.615Z,12.70
2022-09-28T04:05:20.602Z,12.70
2022-09-28T04:08:22.611Z,12.60
2022-09-28T04:11:24.557Z,12.50
2022-09-28T04:14:26.405Z,12.50
2022-09-28T04:17:28.297Z,12.50
2022-09-28T04:20:30.127Z,12.60
2022-09-28T04:23:32.466Z,12.60
2022-09-28T04:26:34.353Z,12.60
2022-09-28T04:29:36.241Z,12.70
2022-09-28T04:32:39.327Z,12.70
2022-09-28T04:35:41.334Z,12.70
2022-09-28T04:38:58.583Z,12.70
2022-09-28T04:42:01.901Z,12.70
2022-09-28T04:45:04.859Z,12.70
2022-09-28T04:48:07.948Z,12.70
2022-09-28T04:51:10.128Z,12.80
2022-09-28T04:54:11.990Z,12.90
2022-09-28T04:57:13.846Z,12.90
2022-09-28T05:00:16.886Z,12.80
2022-09-28T05:03:19.090Z,12.90
2022-09-28T05:06:22.758Z,12.90
2022-09-28T05:09:24.642Z,13.00
2022-09-28T05:12:26.533Z,13.00
2022-09-28T05:15:28.390Z,13.00
2022-09-28T05:18:30.301Z,13.00
2022-09-28T05:21:32.235Z,12.80
2022-09-28T05:24:34.107Z,12.90
2022-09-28T05:27:35.927Z,12.90
2022-09-28T05:30:38.322Z,13.00
2022-09-28T05:33:40.222Z,13.00
2022-09-28T05:36:42.898Z,13.00
2022-09-28T05:39:44.711Z,13.10
2022-09-28T05:42:46.667Z,13.20
2022-09-28T05:45:51.644Z,13.30
2022-09-28T05:48:56.336Z,13.20
2022-09-28T05:51:58.177Z,13.40
2022-09-28T05:55:00.563Z,13.50
2022-09-28T05:58:04.703Z,13.40
2022-09-28T06:01:06.667Z,13.40
2022-09-28T06:04:09.044Z,13.30
2022-09-28T06:07:12.085Z,13.50
2022-09-28T06:10:14.011Z,13.30
2022-09-28T06:13:15.852Z,13.40
2022-09-28T06:16:18.780Z,13.30
2022-09-28T06:19:20.685Z,13.40
2022-09-28T06:22:22.498Z,13.40
2022-09-28T06:25:25.026Z,13.30
2022-09-28T06:28:27.010Z,13.30
2022-09-28T06:31:31.440Z,13.20
2022-09-28T06:34:34.934Z,13.30
2022-09-28T06:37:36.991Z,13.50
2022-09-28T06:40:39.435Z,13.50
2022-09-28T06:43:41.615Z,13.50
2022-09-28T06:46:43.442Z,13.60
2022-09-28T06:49:47.824Z,13.60
2022-09-28T06:52:54.327Z,13.70
2022-09-28T06:55:58.005Z,13.50
2022-09-28T06:58:59.872Z,13.70
2022-09-28T07:02:01.859Z,13.40
2022-09-28T07:05:04.067Z,13.50
2022-09-28T07:08:05.948Z,13.60
2022-09-28T07:11:08.343Z,13.80
2022-09-28T07:14:16.345Z,13.60
2022-09-28T07:17:24.948Z,13.60
2022-09-28T07:20:27.341Z,13.40
2022-09-28T07:23:30.709Z,13.60
2022-09-28T07:26:33.261Z,13.70
2022-09-28T07:29:35.129Z,13.70
2022-09-28T07:32:37.580Z,13.60
2022-09-28T07:35:41.808Z,13.60
2022-09-28T07:38:44.079Z,13.80
2022-09-28T07:41:45.907Z,13.80
2022-09-28T07:44:47.899Z,13.90
2022-09-28T07:47:50.859Z,14.10
2022-09-28T07:50:55.167Z,14.00
2022-09-28T07:53:57.031Z,14.20
2022-09-28T07:56:58.914Z,13.90
2022-09-28T08:00:02.224Z,14.10
2022-09-28T08:03:04.109Z,14.40
2022-09-28T08:06:09.902Z,14.30
2022-09-28T08:09:11.833Z,14.20
2022-09-28T08:12:14.220Z,14.40
2022-09-28T08:15:16.133Z,14.50
2022-09-28T08:18:18.182Z,14.60
2022-09-28T08:21:41.455Z,14.70
2022-09-28T08:24:43.481Z,14.60
2022-09-28T08:27:45.328Z,14.70
2022-09-28T08:30:48.505Z,14.90
2022-09-28T08:33:53.763Z,15.30
2022-09-28T08:36:59.149Z,15.70
2022-09-28T08:40:01.128Z,15.80
2022-09-28T08:43:14.594Z,15.50
2022-09-28T08:46:17.787Z,15.50
2022-09-28T08:49:29.739Z,15.40
2022-09-28T08:52:38.000Z,15.40
2022-09-28T08:55:40.399Z,15.30
2022-09-28T08:58:45.951Z,15.30
2022-09-28T09:02:16.231Z,15.50
2022-09-28T09:05:21.040Z,15.30
2022-09-28T09:08:32.183Z,15.60
2022-09-28T09:11:51.923Z,15.60
2022-09-28T09:14:56.651Z,15.80
2022-09-28T09:18:27.524Z,16.10
2022-09-28T09:21:58.027Z,15.50
2022-09-28T09:25:25.928Z,15.50
2022-09-28T09:28:33.393Z,15.50
2022-09-28T09:32:05.630Z,15.40
2022-09-28T09:35:07.694Z,16.00
2022-09-28T09:38:45.987Z,16.30
2022-09-28T09:41:53.935Z,16.60
2022-09-28T09:45:07.749Z,16.60
2022-09-28T09:48:24.936Z,16.50
2022-09-28T09:51:57.232Z,16.40
2022-09-28T09:55:16.924Z,16.70
2022-09-28T09:58:26.026Z,16.90
2022-09-28T10:01:35.354Z,16.90
2022-09-28T10:04:43.419Z,17.00
2022-09-28T10:08:08.913Z,16.60
2022-09-28T10:11:25.604Z,16.40
2022-09-28T10:14:27.887Z,16.40
2022-09-28T10:17:29.799Z,16.50
2022-09-28T10:20:37.045Z,16.20
2022-09-28T10:23:41.020Z,16.20
2022-09-28T10:26:48.333Z,16.40
2022-09-28T10:29:55.335Z,16.70
2022-09-28T10:33:00.768Z,17.00
2022-09-28T10:36:07.354Z,17.10
2022-09-28T10:39:32.370Z,17.00
2022-09-28T10:42:36.249Z,17.00
2022-09-28T10:45:38.785Z,16.80
2022-09-28T10:48:51.682Z,16.50
2022-09-28T10:51:56.235Z,16.60
2022-09-28T10:54:58.527Z,17.00
2022-09-28T10:58:00.655Z,17.50
2022-09-28T11:01:09.378Z,17.80
2022-09-28T11:04:22.136Z,17.50
2022-09-28T11:07:30.746Z,18.00
2022-09-28T11:10:33.429Z,18.20
2022-09-28T11:13:47.921Z,18.10
2022-09-28T11:17:15.287Z,18.10
2022-09-28T11:20:28.156Z,17.70
2022-09-28T11:23:31.229Z,17.40
2022-09-28T11:26:51.260Z,17.10
2022-09-28T11:29:58.850Z,17.00
2022-09-28T11:33:10.121Z,16.70
2022-09-28T11:36:15.045Z,16.80
2022-09-28T11:39:33.175Z,17.40
2022-09-28T11:42:56.888Z,17.60
2022-09-28T11:46:21.167Z,17.80
2022-09-28T11:49:38.741Z,18.00
2022-09-28T11:52:56.693Z,18.30
2022-09-28T11:56:39.688Z,18.10
2022-09-28T12:00:05.178Z,17.40
2022-09-28T12:03:25.410Z,17.70
2022-09-28T12:06:38.826Z,17.60
2022-09-28T12:09:54.097Z,17.30
2022-09-28T12:13:10.214Z,17.30
2022-09-28T12:16:45.708Z,16.80
2022-09-28T12:20:01.655Z,16.90
2022-09-28T12:23:08.269Z,16.80
2022-09-28T12:26:16.161Z,16.80
2022-09-28T12:29:41.072Z,17.00
2022-09-28T12:32:58.596Z,17.30
2022-09-28T12:36:19.009Z,17.20
2022-09-28T12:39:56.397Z,17.00
2022-09-28T12:43:17.631Z,17.20
2022-09-28T12:46:40.943Z,17.50
2022-09-28T12:50:38.049Z,17.50
2022-09-28T12:57:40.362Z,17.40
2022-09-28T13:01:17.127Z,17.40
2022-09-28T13:04:41.432Z,17.60
2022-09-28T13:07:54.181Z,18.10
2022-09-28T13:11:32.019Z,18.20
2022-09-28T13:14:45.827Z,18.20
2022-09-28T13:17:56.881Z,18.00
2022-09-28T13:21:15.214Z,17.60
2022-09-28T13:24:32.619Z,17.70
2022-09-28T13:27:40.540Z,17.70
2022-09-28T13:30:45.270Z,17.40
2022-09-28T13:33:49.087Z,17.50
2022-09-28T13:37:10.018Z,17.40
2022-09-28T13:40:12.044Z,17.20
2022-09-28T13:43:28.783Z,17.20
2022-09-28T13:46:39.307Z,17.30
2022-09-28T13:49:44.659Z,17.50
2022-09-28T13:53:31.320Z,17.30
2022-09-28T13:56:50.964Z,17.20
2022-09-28T14:00:16.410Z,17.20
2022-09-28T14:03:27.769Z,17.20
2022-09-28T14:06:32.223Z,17.10
2022-09-28T14:09:59.017Z,17.00
2022-09-28T14:13:02.332Z,16.90
2022-09-28T14:16:18.154Z,16.80
2022-09-28T14:19:26.662Z,16.80
2022-09-28T14:22:49.437Z,16.80
2022-09-28T14:26:15.470Z,16.80
2022-09-28T14:29:28.525Z,16.90
2022-09-28T14:32:37.533Z,17.00
2022-09-28T14:35:45.466Z,16.90
2022-09-28T14:39:08.699Z,16.80
2022-09-28T14:42:29.011Z,16.60
2022-09-28T14:45:36.322Z,16.50
2022-09-28T14:48:50.565Z,16.50
2022-09-28T14:51:57.859Z,16.50
2022-09-28T14:54:59.733Z,16.50
2022-09-28T14:58:04.548Z,16.40
2022-09-28T15:01:17.206Z,16.30
2022-09-28T15:04:20.524Z,16.30
2022-09-28T15:07:34.335Z,16.30
2022-09-28T15:10:42.043Z,16.20
2022-09-28T15:13:44.317Z,16.20
2022-09-28T15:16:46.458Z,16.20
2022-09-28T15:19:53.827Z,16.20
2022-09-28T15:23:00.869Z,16.20
2022-09-28T15:26:07.193Z,16.10
2022-09-28T15:29:20.800Z,16.20
2022-09-28T15:32:31.778Z,16.00
2022-09-28T15:35:34.633Z,15.80
2022-09-28T15:38:36.858Z,15.80
2022-09-28T15:41:39.075Z,15.70
2022-09-28T15:44:45.711Z,15.70
2022-09-28T15:47:47.669Z,15.70
2022-09-28T15:51:06.183Z,15.60
2022-09-28T15:54:20.405Z,15.60
2022-09-28T15:57:38.083Z,15.60
2022-09-28T16:00:40.461Z,15.60
2022-09-28T16:03:42.406Z,15.50
2022-09-28T16:06:44.692Z,15.50
2022-09-28T16:10:11.540Z,15.50
2022-09-28T16:13:20.082Z,15.50
2022-09-28T16:16:30.722Z,15.50
2022-09-28T16:19:37.820Z,15.50
2022-09-28T16:22:43.328Z,15.50
2022-09-28T16:26:02.879Z,15.40
2022-09-28T16:29:29.518Z,15.40
2022-09-28T16:32:54.468Z,15.40
2022-09-28T16:36:01.851Z,15.40
2022-09-28T16:39:04.013Z,15.50
2022-09-28T16:42:08.107Z,15.40
2022-09-28T16:45:20.624Z,15.40
2022-09-28T16:48:27.336Z,15.40
2022-09-28T16:51:29.582Z,15.30
2022-09-28T16:54:53.979Z,15.30
2022-09-28T16:57:56.384Z,15.20
2022-09-28T17:00:59.129Z,15.20
2022-09-28T17:04:01.434Z,15.20
2022-09-28T17:07:03.334Z,15.30
2022-09-28T17:10:16.838Z,15.30
2022-09-28T17:13:23.603Z,15.20
2022-09-28T17:16:58.196Z,15.20
2022-09-28T17:19:52.287Z,15.20
2022-09-28T17:22:54.269Z,15.20
2022-09-28T17:25:56.845Z,15.20
2022-09-28T17:28:59.457Z,15.10
2022-09-28T17:32:01.600Z,15.10
2022-09-28T17:35:23.582Z,15.10
2022-09-28T17:38:27.071Z,15.10
2022-09-28T17:41:29.091Z,15.10
2022-09-28T17:44:31.036Z,15.00
2022-09-28T17:47:34.432Z,15.00
2022-09-28T17:50:36.561Z,15.00
2022-09-28T17:53:38.604Z,15.00
2022-09-28T17:56:40.601Z,15.00
2022-09-28T17:59:42.508Z,15.00
2022-09-28T18:02:45.323Z,15.10
2022-09-28T18:05:51.016Z,15.10
2022-09-28T18:08:53.079Z,15.10
2022-09-28T18:12:05.280Z,15.10
2022-09-28T18:15:07.674Z,15.00
2022-09-28T18:18:10.799Z,15.00
2022-09-28T18:21:12.995Z,15.00
2022-09-28T18:24:14.926Z,15.00
2022-09-28T18:27:16.850Z,15.00
2022-09-28T18:30:18.818Z,14.90
2022-09-28T18:33:20.945Z,14.90
2022-09-28T18:36:37.443Z,14.90
2022-09-28T18:39:39.532Z,14.90
2022-09-28T18:42:44.698Z,14.90
2022-09-28T18:45:47.288Z,14.80
2022-09-28T18:48:49.751Z,14.80
2022-09-28T18:51:52.271Z,14.80
2022-09-28T18:54:54.219Z,14.80
2022-09-28T18:57:56.259Z,14.70
2022-09-28T19:01:25.218Z,14.50
2022-09-28T19:04:20.635Z,14.40
2022-09-28T19:07:23.272Z,14.50
2022-09-28T19:10:25.450Z,14.50
2022-09-28T19:13:28.523Z,14.50
2022-09-28T19:16:33.713Z,14.60
2022-09-28T19:19:35.909Z,14.50
2022-09-28T19:22:37.825Z,14.40
2022-09-28T19:25:41.032Z,14.40
2022-09-28T19:28:43.143Z,14.10
2022-09-28T19:31:45.309Z,14.00
2022-09-28T19:34:47.176Z,13.90
2022-09-28T19:37:50.128Z,14.00
2022-09-28T19:40:52.112Z,14.20
2022-09-28T19:43:55.415Z,14.20
2022-09-28T19:47:06.779Z,14.20
2022-09-28T19:50:10.267Z,14.10
2022-09-28T19:53:13.233Z,14.00
2022-09-28T19:56:16.661Z,14.10
2022-09-28T19:59:19.227Z,14.20
2022-09-28T20:02:22.045Z,14.20
2022-09-28T20:05:24.006Z,14.10
2022-09-28T20:08:26.731Z,14.10
2022-09-28T20:11:31.852Z,14.00
2022-09-28T20:14:37.959Z,14.00
2022-09-28T20:17:44.460Z,14.00
2022-09-28T20:20:46.314Z,14.10
2022-09-28T20:23:49.677Z,14.10
2022-09-28T20:26:51.480Z,14.20
2022-09-28T20:29:53.726Z,14.20
2022-09-28T20:32:55.578Z,14.20
2022-09-28T20:35:57.889Z,14.20
2022-09-28T20:39:03.655Z,14.20
2022-09-28T20:42:05.674Z,14.10
2022-09-28T20:45:07.709Z,14.10
2022-09-28T20:48:09.589Z,14.10
2022-09-28T20:51:14.020Z,14.00
2022-09-28T20:54:15.926Z,13.90
2022-09-28T20:57:17.840Z,13.80
2022-09-28T21:00:19.876Z,13.60
2022-09-28T21:03:21.774Z,13.50
2022-09-28T21:06:27.051Z,13.60
2022-09-28T21:09:31.200Z,13.60
2022-09-28T21:12:34.287Z,13.80
2022-09-28T21:15:36.312Z,13.80
2022-09-28T21:18:41.212Z,13.90
2022-09-28T21:21:43.265Z,13.90
2022-09-28T21:24:45.439Z,13.90
2022-09-28T21:27:47.929Z,14.00
2022-09-28T21:30:52.007Z,14.00
2022-09-28T21:33:53.922Z,14.00
2022-09-28T21:36:55.858Z,14.00
2022-09-28T21:39:58.176Z,14.00
2022-09-28T21:43:03.996Z,14.00
2022-09-28T21:46:07.843Z,14.00
2022-09-28T21:49:11.032Z,14.10
2022-09-28T21:52:12.853Z,14.00
2022-09-28T21:55:14.811Z,14.00
2022-09-28T21:58:23.747Z,14.10
2022-09-28T22:01:26.301Z,14.00
2022-09-28T22:04:29.983Z,14.00
2022-09-28T22:07:32.137Z,14.00
2022-09-28T22:10:33.980Z,14.00
2022-09-28T22:13:51.840Z,13.90
2022-09-28T22:16:54.747Z,13.90
2022-09-28T22:19:57.518Z,13.80
2022-09-28T22:23:00.501Z,13.70
2022-09-28T22:26:13.466Z,13.60
2022-09-28T22:29:16.997Z,13.60
2022-09-28T22:32:20.260Z,13.60
2022-09-28T22:35:21.991Z,13.50
2022-09-28T22:38:25.012Z,13.50
2022-09-28T22:41:27.126Z,13.50
2022-09-28T22:44:30.109Z,13.40
2022-09-28T22:47:31.922Z,13.50
2022-09-28T22:50:34.520Z,13.40
2022-09-28T22:53:36.396Z,13.30
2022-09-28T22:56:38.281Z,13.20
2022-09-28T22:59:40.137Z,13.00
2022-09-28T23:02:42.027Z,13.20
2022-09-28T23:05:55.041Z,13.20
2022-09-28T23:08:57.354Z,13.10
2022-09-28T23:11:59.300Z,13.20
2022-09-28T23:15:01.147Z,13.20
2022-09-28T23:18:02.955Z,13.30
2022-09-28T23:21:07.222Z,13.30
2022-09-28T23:24:10.928Z,13.20
2022-09-28T23:27:12.865Z,13.00
2022-09-28T23:30:16.332Z,13.10
2022-09-28T23:33:20.425Z,13.00
2022-09-28T23:36:22.297Z,13.10
2022-09-28T23:39:24.157Z,13.10
2022-09-28T23:42:25.967Z,13.10
2022-09-28T23:45:27.895Z,13.10
2022-09-28T23:48:29.921Z,13.00
2022-09-28T23:51:31.950Z,13.00
2022-09-28T23:54:33.866Z,12.70
2022-09-28T23:57:35.729Z,12.70
